METAR stanice u blizini

 

LYBE - Beograd / Surčin, Srbija
Ažurirano: 15/07/2024 01:00
Vedro
Vedro
 Pravac vetra J
Vetar: J 11 km/h
Temperatura: 27°C
Heat Index: 28°C
Tačka rose: 17°C
Vlažnost: 54%
Pritisak: 1011 hPa
Pregled: Vedro
Vidljivost: greater than 10 km
2024/07/14 23:00 LYBE 142300Z 19006KT 170V230 CAVOK 27/17 Q1011 NOSIG
LYBT - Beograd / Batajnica, Srbija
Ažurirano: 15/07/2024 01:00
Vedro
Vedro
 Pravac vetra ZJZ
Vetar: ZJZ 7 km/h
Temperatura: 25°C
Tačka rose: 22°C
Vlažnost: 83%
Pritisak: 1011 hPa
Pregled: Vedro
Vidljivost: greater than 10 km
2024/07/14 23:00 LYBT 142300Z 24004KT CAVOK 25/22 Q1011 NOSIG
LYVR - Vršac, Srbija
Ažurirano: 15/07/2024 01:00
Vedro
Vedro
 Pravac vetra varies
Vetar: varies 2 km/h
Temperatura: 24°C
Tačka rose: 16°C
Vlažnost: 61%
Pritisak: 1010 hPa
Pregled: Vedro
Vidljivost: greater than 10 km
2024/07/14 23:00 LYVR 142300Z AUTO VRB01KT CAVOK 24/16 Q1010
 
LYKV - Lađevci, Srbija
Ažurirano: 15/07/2024 01:00
Partly Cloudy
Partly Cloudy
 Pravac vetra calm
Vetar: Tišina
Temperatura: 25°C
Tačka rose: 16°C
Vlažnost: 57%
Pritisak: 1012 hPa
Oblaci: Partly Cloudy
Vidljivost: 10 km
Cloud details: Partly Cloudy 1372 m
2024/07/14 23:00 LYKV 142300Z 00000KT 9999 SCT045 25/16 Q1012 NOSIG
LYNI - Niš, Srbija
Ažurirano: 15/07/2024 01:00
Vedro
Vedro
 Pravac vetra varies
Vetar: varies 4 km/h
Temperatura: 27°C
Heat Index: 28°C
Tačka rose: 16°C
Vlažnost: 51%
Pritisak: 1013 hPa
Pregled: Vedro
Vidljivost: greater than 10 km
2024/07/14 23:00 LYNI 142300Z VRB02KT CAVOK 27/16 Q1013 NOSIG
BKPR - Priština, Srbija
Ažurirano: 15/07/2024 01:00
Few Clouds
Few Clouds
 Pravac vetra S
Vetar: S 9 km/h
Temperatura: 26°C
Tačka rose: 13°C
Vlažnost: 45%
Pritisak: 1015 hPa
Oblaci: Few Clouds
Vidljivost: 10 km
Cloud details: Few Clouds 1067 m
2024/07/14 23:00 BKPR 142300Z 35005KT 9999 FEW035CB 26/13 Q1015 NOSIG
 
LHPP - Pecs / Pogany, Hungary
Ažurirano: 15/07/2024 00:45
Vedro
Vedro
 Pravac vetra varies
Vetar: varies 2 km/h
Temperatura: 27°C
Heat Index: 28°C
Tačka rose: 19°C
Vlažnost: 62%
Pritisak: 1013 hPa
Pregled: Vedro
Vidljivost: greater than 10 km
2024/07/14 22:45 LHPP 142245Z AUTO VRB01KT CAVOK 27/19 Q1013
LHUD - Szeged, Hungary
Ažurirano: 04/07/2019 01:45
NOT Current
Vedro
Vedro
 Pravac vetra S
Vetar: S 7 km/h
Temperatura: 18°C
Tačka rose: 13°C
Vlažnost: 73%
Pritisak: 1019 hPa
Pregled: Vedro
Vidljivost: greater than 10 km
2019/07/03 23:45 LHUD 032345Z 35004KT CAVOK 18/13 Q1019
LRTR - Timisoara, Romania
Ažurirano: 15/07/2024 01:00
Vedro
Vedro
 Pravac vetra I
Vetar: I 13 km/h
Temperatura: 24°C
Tačka rose: 17°C
Vlažnost: 65%
Pritisak: 1010 hPa
Pregled: Vedro
Vidljivost: greater than 10 km
2024/07/14 23:00 LRTR 142300Z 09007KT CAVOK 24/17 Q1010
 
LRCV - Craiova, Romania
Ažurirano: 15/07/2024 01:00
Vedro
Vedro
 Pravac vetra JI
Vetar: JI 9 km/h
Temperatura: 29°C
Tačka rose: 13°C
Vlažnost: 37%
Pritisak: 1011 hPa
Pregled: Vedro
Vidljivost: greater than 10 km
2024/07/14 23:00 LRCV 142300Z 14005KT CAVOK 29/13 Q1011
LBSF - Sofia, Bulgaria
Ažurirano: 15/07/2024 01:00
Vedro
Vedro
 Pravac vetra JI
Vetar: JI 11 km/h
Temperatura: 22°C
Tačka rose: 13°C
Vlažnost: 57%
Pritisak: 1015 hPa
Oblaci: Vedro
Vidljivost: 10 km
2024/07/14 23:00 LBSF 142300Z AUTO 13006KT 100V160 9999 NCD 22/13 Q1015 NOSIG
LWSK - Skoplje, Makedonija
Ažurirano: 15/07/2024 00:50
Vedro
Vedro
 Pravac vetra varies
Vetar: varies 4 km/h
Temperatura: 23°C
Tačka rose: 17°C
Vlažnost: 69%
Pritisak: 1012 hPa
Pregled: Vedro
Vidljivost: greater than 10 km
2024/07/14 22:50 LWSK 142250Z VRB02KT CAVOK 23/17 Q1012 NOSIG
 
LYPG - Podgorica, Crna Gora
Ažurirano: 15/07/2024 01:00
Vedro
Vedro
 Pravac vetra SZ
Vetar: SZ 6 km/h
Temperatura: 27°C
Heat Index: 28°C
Tačka rose: 19°C
Vlažnost: 62%
Pritisak: 1011 hPa
Pregled: Vedro
Vidljivost: greater than 10 km
2024/07/14 23:00 LYPG 142300Z AUTO 32003KT CAVOK 27/19 Q1011
LQSA - Sarajevo, Bosna i Hercegovina
Ažurirano: 15/07/2024 01:00
Vedro
Vedro
 Pravac vetra varies
Vetar: varies 2 km/h
Temperatura: 23°C
Tačka rose: 18°C
Vlažnost: 74%
Pritisak: 1015 hPa
Pregled: Vedro
Vidljivost: greater than 10 km
2024/07/14 23:00 LQSA 142300Z VRB01KT CAVOK 23/18 Q1015
LDOS - Osijek, Hrvatksa
Ažurirano: 15/07/2024 01:00
Vedro
Vedro
 Pravac vetra ZSZ
Vetar: ZSZ 7 km/h
Temperatura: 25°C
Tačka rose: 23°C
Vlažnost: 89%
Pritisak: 1011 hPa
Pregled: Vedro
Vidljivost: greater than 10 km
2024/07/14 23:00 LDOS 142300Z 29004KT CAVOK 25/23 Q1011